sensor_id;sensor_type;location;lat;lon;timestamp;pressure;altitude;pressure_sealevel;temperature;humidity
39295;BME280;52361;52.100;5.248;2022-07-10T03:09:03;102642.0;;;15.54;94.8
39295;BME280;52361;52.100;5.248;2022-07-10T03:10:50;102642.0;;;15.72;93.2
39295;BME280;52361;52.100;5.248;2022-07-10T03:12:38;102643.0;;;15.98;91.61
39295;BME280;52361;52.100;5.248;2022-07-10T03:14:26;102642.0;;;16.05;90.5
39295;BME280;52361;52.100;5.248;2022-07-10T03:16:13;102645.0;;;16.18;90.12
39295;BME280;52361;52.100;5.248;2022-07-10T03:18:00;102649.0;;;16.28;90.0
39295;BME280;52361;52.100;5.248;2022-07-10T03:21:34;102647.0;;;16.36;89.3
39295;BME280;52361;52.100;5.248;2022-07-10T03:23:21;102643.0;;;16.43;88.76
39295;BME280;52361;52.100;5.248;2022-07-10T03:25:09;102638.00000000001;;;16.47;88.52
39295;BME280;52361;52.100;5.248;2022-07-10T03:26:56;102642.0;;;16.55;88.54
39295;BME280;52361;52.100;5.248;2022-07-10T03:30:30;102639.00000000001;;;16.59;87.65
39295;BME280;52361;52.100;5.248;2022-07-10T03:34:05;102636.99999999999;;;16.62;87.51
39295;BME280;52361;52.100;5.248;2022-07-10T03:35:52;102631.0;;;16.72;87.23
39295;BME280;52361;52.100;5.248;2022-07-10T03:37:39;102629.0;;;16.7;87.0
39295;BME280;52361;52.100;5.248;2022-07-10T03:39:26;102632.0;;;16.68;87.48
39295;BME280;52361;52.100;5.248;2022-07-10T03:41:13;102633.99999999999;;;16.68;87.53
39295;BME280;52361;52.100;5.248;2022-07-10T03:44:47;102632.0;;;16.68;87.59
39295;BME280;52361;52.100;5.248;2022-07-10T03:46:34;102630.0;;;16.61;87.53
39295;BME280;52361;52.100;5.248;2022-07-10T03:48:21;102630.0;;;16.7;87.8
39295;BME280;52361;52.100;5.248;2022-07-10T03:50:08;102617.0;;;16.75;87.88
39295;BME280;52361;52.100;5.248;2022-07-10T03:51:58;102623.0;;;16.7;87.03
39295;BME280;52361;52.100;5.248;2022-07-10T03:53:45;102626.0;;;16.75;87.17
39295;BME280;52361;52.100;5.248;2022-07-10T03:58:23;102629.0;;;16.75;87.7
39295;BME280;52361;52.100;5.248;2022-07-10T04:00:12;102627.0;;;16.66;87.56
39295;BME280;52361;52.100;5.248;2022-07-10T04:01:59;102615.00000000001;;;16.75;87.53
39295;BME280;52361;52.100;5.248;2022-07-10T04:05:33;102614.00000000001;;;16.79;87.5
39295;BME280;52361;52.100;5.248;2022-07-10T04:09:08;102608.99999999999;;;16.81;87.45
39295;BME280;52361;52.100;5.248;2022-07-10T04:10:55;102614.00000000001;;;16.79;87.14
39295;BME280;52361;52.100;5.248;2022-07-10T04:12:41;102614.00000000001;;;16.82;86.74
39295;BME280;52361;52.100;5.248;2022-07-10T04:18:01;102603.0;;;16.84;86.69
39295;BME280;52361;52.100;5.248;2022-07-10T04:19:48;102615.00000000001;;;16.91;87.2
39295;BME280;52361;52.100;5.248;2022-07-10T04:21:35;102614.00000000001;;;16.89;86.76
39295;BME280;52361;52.100;5.248;2022-07-10T04:23:24;102615.00000000001;;;16.91;87.06
39295;BME280;52361;52.100;5.248;2022-07-10T04:25:11;102616.00000000001;;;16.95;86.75
39295;BME280;52361;52.100;5.248;2022-07-10T04:26:59;102618.0;;;16.93;86.76
39295;BME280;52361;52.100;5.248;2022-07-10T04:30:32;102617.0;;;17.04;86.6
39295;BME280;52361;52.100;5.248;2022-07-10T04:32:19;102619.0;;;17.05;86.07
39295;BME280;52361;52.100;5.248;2022-07-10T04:34:06;102611.99999999999;;;17.12;86.07
39295;BME280;52361;52.100;5.248;2022-07-10T04:35:53;102604.0;;;17.25;85.06
39295;BME280;52361;52.100;5.248;2022-07-10T04:37:40;102609.99999999999;;;17.31;85.54
39295;BME280;52361;52.100;5.248;2022-07-10T04:41:15;102615.00000000001;;;17.34;85.0
39295;BME280;52361;52.100;5.248;2022-07-10T04:43:02;102614.00000000001;;;17.52;84.41
39295;BME280;52361;52.100;5.248;2022-07-10T04:44:49;102617.0;;;17.47;83.41
39295;BME280;52361;52.100;5.248;2022-07-10T04:46:36;102611.99999999999;;;17.5;83.84
39295;BME280;52361;52.100;5.248;2022-07-10T04:48:23;102611.99999999999;;;17.61;83.18
39295;BME280;52361;52.100;5.248;2022-07-10T04:50:10;102615.00000000001;;;17.75;82.21
39295;BME280;52361;52.100;5.248;2022-07-10T04:53:45;102616.00000000001;;;17.75;81.72
39295;BME280;52361;52.100;5.248;2022-07-10T04:55:32;102617.0;;;17.73;82.68
39295;BME280;52361;52.100;5.248;2022-07-10T04:59:06;102621.0;;;18.0;81.88
39295;BME280;52361;52.100;5.248;2022-07-10T05:00:53;102618.0;;;18.16;80.5
39295;BME280;52361;52.100;5.248;2022-07-10T05:02:41;102616.00000000001;;;18.13;80.69
39295;BME280;52361;52.100;5.248;2022-07-10T05:06:15;102617.0;;;18.09;80.77
39295;BME280;52361;52.100;5.248;2022-07-10T05:08:02;102621.0;;;18.09;81.08
39295;BME280;52361;52.100;5.248;2022-07-10T05:09:49;102626.0;;;18.11;80.84
39295;BME280;52361;52.100;5.248;2022-07-10T05:11:36;102628.0;;;18.09;81.23
39295;BME280;52361;52.100;5.248;2022-07-10T05:13:22;102628.0;;;18.13;80.05
39295;BME280;52361;52.100;5.248;2022-07-10T05:15:10;102630.0;;;18.05;81.03
39295;BME280;52361;52.100;5.248;2022-07-10T05:18:44;102628.0;;;18.02;81.53
39295;BME280;52361;52.100;5.248;2022-07-10T05:20:31;102629.0;;;18.0;81.55
39295;BME280;52361;52.100;5.248;2022-07-10T05:22:18;102631.0;;;17.97;80.83
39295;BME280;52361;52.100;5.248;2022-07-10T05:24:05;102628.0;;;17.84;81.69
39295;BME280;52361;52.100;5.248;2022-07-10T05:25:52;102629.0;;;17.84;82.25
39295;BME280;52361;52.100;5.248;2022-07-10T05:27:39;102628.0;;;17.82;81.8
39295;BME280;52361;52.100;5.248;2022-07-10T05:31:14;102631.0;;;17.82;82.71
39295;BME280;52361;52.100;5.248;2022-07-10T05:33:01;102630.0;;;17.79;82.89
39295;BME280;52361;52.100;5.248;2022-07-10T05:34:48;102629.0;;;17.8;82.23
39295;BME280;52361;52.100;5.248;2022-07-10T05:36:35;102630.0;;;17.87;81.55
39295;BME280;52361;52.100;5.248;2022-07-10T05:38:21;102632.0;;;17.89;82.81
39295;BME280;52361;52.100;5.248;2022-07-10T05:41:57;102627.0;;;17.91;81.7
39295;BME280;52361;52.100;5.248;2022-07-10T05:43:45;102631.0;;;17.88;81.64
39295;BME280;52361;52.100;5.248;2022-07-10T05:45:32;102627.0;;;17.89;81.42
39295;BME280;52361;52.100;5.248;2022-07-10T05:49:06;102620.0;;;17.88;83.1
39295;BME280;52361;52.100;5.248;2022-07-10T05:50:53;102616.00000000001;;;17.97;81.37
39295;BME280;52361;52.100;5.248;2022-07-10T05:54:27;102617.0;;;18.02;81.69
39295;BME280;52361;52.100;5.248;2022-07-10T05:56:14;102617.0;;;18.0;81.69
39295;BME280;52361;52.100;5.248;2022-07-10T05:58:01;102625.0;;;18.16;80.64
39295;BME280;52361;52.100;5.248;2022-07-10T05:59:49;102624.0;;;18.12;81.91
39295;BME280;52361;52.100;5.248;2022-07-10T06:01:36;102625.0;;;18.22;80.37
39295;BME280;52361;52.100;5.248;2022-07-10T06:03:24;102619.0;;;18.16;79.86
39295;BME280;52361;52.100;5.248;2022-07-10T06:07:02;102620.0;;;18.16;80.34
39295;BME280;52361;52.100;5.248;2022-07-10T06:08:49;102619.0;;;18.2;80.47
39295;BME280;52361;52.100;5.248;2022-07-10T06:10:36;102622.0;;;18.16;81.83
39295;BME280;52361;52.100;5.248;2022-07-10T06:12:23;102625.0;;;18.22;81.41
39295;BME280;52361;52.100;5.248;2022-07-10T06:14:11;102623.0;;;18.25;81.05
39295;BME280;52361;52.100;5.248;2022-07-10T06:15:57;102624.0;;;18.25;81.05
39295;BME280;52361;52.100;5.248;2022-07-10T06:19:31;102620.0;;;18.21;81.62
39295;BME280;52361;52.100;5.248;2022-07-10T06:21:22;102627.0;;;18.18;81.92
39295;BME280;52361;52.100;5.248;2022-07-10T06:23:08;102628.0;;;18.16;82.7
39295;BME280;52361;52.100;5.248;2022-07-10T06:24:56;102633.0;;;18.29;81.78
39295;BME280;52361;52.100;5.248;2022-07-10T06:26:43;102632.0;;;18.27;82.13
39295;BME280;52361;52.100;5.248;2022-07-10T06:28:30;102634.99999999999;;;18.28;82.3
39295;BME280;52361;52.100;5.248;2022-07-10T06:32:08;102634.99999999999;;;18.34;81.45
39295;BME280;52361;52.100;5.248;2022-07-10T06:33:55;102634.99999999999;;;18.25;82.03
39295;BME280;52361;52.100;5.248;2022-07-10T06:35:41;102632.0;;;18.18;81.97
39295;BME280;52361;52.100;5.248;2022-07-10T06:39:18;102636.99999999999;;;18.27;82.26
39295;BME280;52361;52.100;5.248;2022-07-10T06:41:05;102634.99999999999;;;18.5;80.08
39295;BME280;52361;52.100;5.248;2022-07-10T06:44:39;102633.0;;;18.47;81.2
39295;BME280;52361;52.100;5.248;2022-07-10T06:46:28;102633.99999999999;;;18.5;80.33
39295;BME280;52361;52.100;5.248;2022-07-10T06:48:16;102636.99999999999;;;18.55;79.83
39295;BME280;52361;52.100;5.248;2022-07-10T06:50:03;102631.0;;;18.56;80.5
39295;BME280;52361;52.100;5.248;2022-07-10T06:51:51;102631.0;;;18.63;80.17
39295;BME280;52361;52.100;5.248;2022-07-10T06:53:38;102633.0;;;18.66;79.61
39295;BME280;52361;52.100;5.248;2022-07-10T06:57:13;102638.00000000001;;;18.66;79.19
39295;BME280;52361;52.100;5.248;2022-07-10T06:59:01;102633.99999999999;;;18.77;81.11
39295;BME280;52361;52.100;5.248;2022-07-10T07:00:49;102632.0;;;18.78;80.08
39295;BME280;52361;52.100;5.248;2022-07-10T07:02:36;102629.0;;;18.77;81.28
39295;BME280;52361;52.100;5.248;2022-07-10T07:04:23;102629.0;;;18.8;81.2
39295;BME280;52361;52.100;5.248;2022-07-10T07:06:10;102638.00000000001;;;18.84;78.91
39295;BME280;52361;52.100;5.248;2022-07-10T07:09:45;102634.99999999999;;;18.8;79.81
39295;BME280;52361;52.100;5.248;2022-07-10T07:13:23;102631.0;;;18.96;79.87
39295;BME280;52361;52.100;5.248;2022-07-10T07:15:10;102633.0;;;19.02;79.77
39295;BME280;52361;52.100;5.248;2022-07-10T07:16:59;102636.99999999999;;;19.06;79.2
39295;BME280;52361;52.100;5.248;2022-07-10T07:18:49;102632.0;;;19.2;79.28
39295;BME280;52361;52.100;5.248;2022-07-10T07:23:43;102632.0;;;19.28;77.72
39295;BME280;52361;52.100;5.248;2022-07-10T07:25:30;102630.0;;;19.48;77.72
39295;BME280;52361;52.100;5.248;2022-07-10T07:27:17;102633.0;;;19.59;77.28
39295;BME280;52361;52.100;5.248;2022-07-10T07:29:05;102624.0;;;19.61;75.91
39295;BME280;52361;52.100;5.248;2022-07-10T07:32:38;102631.0;;;19.7;77.48
39295;BME280;52361;52.100;5.248;2022-07-10T07:34:26;102629.0;;;19.73;75.73
39295;BME280;52361;52.100;5.248;2022-07-10T07:36:12;102630.0;;;19.73;75.47
39295;BME280;52361;52.100;5.248;2022-07-10T07:39:48;102628.0;;;19.63;75.19
39295;BME280;52361;52.100;5.248;2022-07-10T07:41:36;102629.0;;;19.77;75.02
39295;BME280;52361;52.100;5.248;2022-07-10T07:45:10;102633.99999999999;;;19.7;75.77
39295;BME280;52361;52.100;5.248;2022-07-10T07:48:44;102634.99999999999;;;19.89;76.14
39295;BME280;52361;52.100;5.248;2022-07-10T07:52:22;102636.99999999999;;;19.86;73.94
39295;BME280;52361;52.100;5.248;2022-07-10T07:54:10;102633.99999999999;;;19.89;72.73
39295;BME280;52361;52.100;5.248;2022-07-10T07:59:33;102634.99999999999;;;19.82;72.94
39295;BME280;52361;52.100;5.248;2022-07-10T08:01:21;102633.99999999999;;;19.78;72.62
39295;BME280;52361;52.100;5.248;2022-07-10T08:03:08;102633.99999999999;;;19.72;73.99
39295;BME280;52361;52.100;5.248;2022-07-10T08:04:55;102640.00000000001;;;19.95;72.84
39295;BME280;52361;52.100;5.248;2022-07-10T08:06:43;102642.0;;;19.95;73.49
39295;BME280;52361;52.100;5.248;2022-07-10T08:10:17;102642.0;;;19.7;73.36
39295;BME280;52361;52.100;5.248;2022-07-10T08:12:06;102642.0;;;19.77;74.12
39295;BME280;52361;52.100;5.248;2022-07-10T08:13:54;102643.0;;;19.93;73.91
39295;BME280;52361;52.100;5.248;2022-07-10T08:15:41;102642.0;;;20.07;74.49
39295;BME280;52361;52.100;5.248;2022-07-10T08:22:50;102639.00000000001;;;19.95;73.74
39295;BME280;52361;52.100;5.248;2022-07-10T08:24:36;102639.00000000001;;;19.97;74.2
39295;BME280;52361;52.100;5.248;2022-07-10T08:26:23;102634.99999999999;;;20.04;72.66
39295;BME280;52361;52.100;5.248;2022-07-10T08:28:12;102634.99999999999;;;19.95;71.56
39295;BME280;52361;52.100;5.248;2022-07-10T08:29:58;102638.00000000001;;;20.07;71.58
39295;BME280;52361;52.100;5.248;2022-07-10T08:31:46;102634.99999999999;;;20.18;71.66
39295;BME280;52361;52.100;5.248;2022-07-10T08:37:07;102626.0;;;20.03;71.47
39295;BME280;52361;52.100;5.248;2022-07-10T08:38:54;102627.0;;;20.39;71.48
39295;BME280;52361;52.100;5.248;2022-07-10T08:40:42;102627.0;;;20.41;71.28
39295;BME280;52361;52.100;5.248;2022-07-10T08:42:32;102627.0;;;20.61;71.28
39295;BME280;52361;52.100;5.248;2022-07-10T08:44:19;102630.0;;;20.59;70.83
39295;BME280;52361;52.100;5.248;2022-07-10T08:47:55;102623.0;;;20.59;69.94
39295;BME280;52361;52.100;5.248;2022-07-10T08:49:46;102622.0;;;20.78;70.81
39295;BME280;52361;52.100;5.248;2022-07-10T08:51:36;102625.0;;;20.74;69.05
39295;BME280;52361;52.100;5.248;2022-07-10T08:53:29;102624.0;;;20.95;67.84
39295;BME280;52361;52.100;5.248;2022-07-10T08:55:17;102628.0;;;20.88;67.7
39295;BME280;52361;52.100;5.248;2022-07-10T08:57:05;102625.0;;;20.88;68.86
39295;BME280;52361;52.100;5.248;2022-07-10T09:02:27;102625.0;;;21.27;67.58
39295;BME280;52361;52.100;5.248;2022-07-10T09:04:16;102620.0;;;21.29;67.41
39295;BME280;52361;52.100;5.248;2022-07-10T09:07:53;102624.0;;;21.35;64.75
39295;BME280;52361;52.100;5.248;2022-07-10T09:09:57;102622.0;;;21.37;65.08
39295;BME280;52361;52.100;5.248;2022-07-10T09:11:45;102624.0;;;21.45;66.97
39295;BME280;52361;52.100;5.248;2022-07-10T09:15:36;102618.0;;;21.4;66.13
39295;BME280;52361;52.100;5.248;2022-07-10T09:17:23;102617.0;;;21.34;67.49
39295;BME280;52361;52.100;5.248;2022-07-10T09:19:18;102609.99999999999;;;21.44;65.47
39295;BME280;52361;52.100;5.248;2022-07-10T09:22:59;102613.00000000001;;;21.55;65.05
39295;BME280;52361;52.100;5.248;2022-07-10T09:28:29;102614.00000000001;;;21.7;65.17
39295;BME280;52361;52.100;5.248;2022-07-10T09:34:05;102609.99999999999;;;21.87;65.27
39295;BME280;52361;52.100;5.248;2022-07-10T09:36:10;102604.0;;;22.05;65.08
39295;BME280;52361;52.100;5.248;2022-07-10T09:37:57;102605.0;;;21.96;63.89
39295;BME280;52361;52.100;5.248;2022-07-10T09:39:53;102601.0;;;21.83;64.87
39295;BME280;52361;52.100;5.248;2022-07-10T09:41:42;102600.0;;;21.93;65.08
39295;BME280;52361;52.100;5.248;2022-07-10T09:43:42;102600.0;;;22.16;64.62
39295;BME280;52361;52.100;5.248;2022-07-10T09:45:30;102596.0;;;22.01;64.08
39295;BME280;52361;52.100;5.248;2022-07-10T09:47:21;102600.0;;;22.15;64.58
39295;BME280;52361;52.100;5.248;2022-07-10T09:49:09;102599.0;;;22.18;62.93
39295;BME280;52361;52.100;5.248;2022-07-10T09:52:45;102594.0;;;22.07;62.49
39295;BME280;52361;52.100;5.248;2022-07-10T09:54:33;102597.0;;;22.16;63.22
39295;BME280;52361;52.100;5.248;2022-07-10T09:56:23;102596.0;;;22.18;62.83
39295;BME280;52361;52.100;5.248;2022-07-10T09:59:59;102593.0;;;22.15;63.24
39295;BME280;52361;52.100;5.248;2022-07-10T10:01:48;102581.0;;;21.98;63.07
39295;BME280;52361;52.100;5.248;2022-07-10T10:05:32;102586.99999999999;;;21.87;64.02
39295;BME280;52361;52.100;5.248;2022-07-10T10:07:22;102586.99999999999;;;22.03;65.66
39295;BME280;52361;52.100;5.248;2022-07-10T10:09:17;102591.00000000001;;;21.91;63.27
39295;BME280;52361;52.100;5.248;2022-07-10T10:11:07;102589.00000000001;;;21.97;62.95
39295;BME280;52361;52.100;5.248;2022-07-10T10:13:03;102592.0;;;21.88;63.01
39295;BME280;52361;52.100;5.248;2022-07-10T10:16:39;102584.99999999999;;;21.95;66.27
39295;BME280;52361;52.100;5.248;2022-07-10T10:18:29;102583.99999999999;;;21.97;63.62
39295;BME280;52361;52.100;5.248;2022-07-10T10:22:40;102591.00000000001;;;22.03;64.45
39295;BME280;52361;52.100;5.248;2022-07-10T10:26:18;102592.0;;;22.22;65.19
39295;BME280;52361;52.100;5.248;2022-07-10T10:28:09;102586.99999999999;;;22.2;63.54
39295;BME280;52361;52.100;5.248;2022-07-10T10:29:57;102597.0;;;22.19;63.08
39295;BME280;52361;52.100;5.248;2022-07-10T10:31:45;102591.00000000001;;;22.39;63.51
39295;BME280;52361;52.100;5.248;2022-07-10T10:33:48;102595.0;;;22.4;64.05
39295;BME280;52361;52.100;5.248;2022-07-10T10:37:34;102588.00000000001;;;22.37;61.77
39295;BME280;52361;52.100;5.248;2022-07-10T10:39:22;102586.99999999999;;;22.4;62.45
39295;BME280;52361;52.100;5.248;2022-07-10T10:43:18;102584.99999999999;;;22.4;63.16
39295;BME280;52361;52.100;5.248;2022-07-10T10:45:25;102588.00000000001;;;22.49;62.88
39295;BME280;52361;52.100;5.248;2022-07-10T10:47:19;102584.99999999999;;;22.4;61.77
39295;BME280;52361;52.100;5.248;2022-07-10T10:49:07;102586.99999999999;;;22.22;63.47
39295;BME280;52361;52.100;5.248;2022-07-10T10:52:59;102582.0;;;22.28;61.71
39295;BME280;52361;52.100;5.248;2022-07-10T10:55:04;102590.00000000001;;;22.4;61.99
39295;BME280;52361;52.100;5.248;2022-07-10T10:57:12;102588.00000000001;;;22.32;61.14
39295;BME280;52361;52.100;5.248;2022-07-10T10:59:44;102583.0;;;22.01;61.6
39295;BME280;52361;52.100;5.248;2022-07-10T11:03:21;102590.00000000001;;;22.33;62.53
39295;BME280;52361;52.100;5.248;2022-07-10T11:12:13;102581.0;;;22.42;59.25
39295;BME280;52361;52.100;5.248;2022-07-10T11:14:03;102581.0;;;22.46;59.66
39295;BME280;52361;52.100;5.248;2022-07-10T11:17:39;102575.0;;;22.34;61.02
39295;BME280;52361;52.100;5.248;2022-07-10T11:19:27;102581.0;;;22.48;59.09
39295;BME280;52361;52.100;5.248;2022-07-10T11:21:22;102577.0;;;22.57;59.37
39295;BME280;52361;52.100;5.248;2022-07-10T11:27:52;102572.0;;;22.81;60.02
39295;BME280;52361;52.100;5.248;2022-07-10T11:29:56;102573.0;;;22.87;57.98
39295;BME280;52361;52.100;5.248;2022-07-10T11:31:52;102576.0;;;22.9;59.18
39295;BME280;52361;52.100;5.248;2022-07-10T11:35:28;102579.0;;;22.83;57.86
39295;BME280;52361;52.100;5.248;2022-07-10T11:37:16;102580.0;;;22.99;57.54
39295;BME280;52361;52.100;5.248;2022-07-10T11:39:05;102574.0;;;22.85;55.74
39295;BME280;52361;52.100;5.248;2022-07-10T11:40:53;102573.0;;;22.99;56.69
39295;BME280;52361;52.100;5.248;2022-07-10T11:42:48;102575.0;;;23.02;57.63
39295;BME280;52361;52.100;5.248;2022-07-10T11:44:42;102574.0;;;23.18;56.98
39295;BME280;52361;52.100;5.248;2022-07-10T11:46:30;102578.0;;;23.05;56.42
39295;BME280;52361;52.100;5.248;2022-07-10T11:50:08;102577.0;;;23.08;57.55
39295;BME280;52361;52.100;5.248;2022-07-10T11:52:01;102575.0;;;22.93;56.94
39295;BME280;52361;52.100;5.248;2022-07-10T11:55:43;102567.0;;;23.06;57.03
39295;BME280;52361;52.100;5.248;2022-07-10T11:57:38;102565.00000000001;;;22.83;56.58
39295;BME280;52361;52.100;5.248;2022-07-10T11:59:25;102563.00000000001;;;23.0;55.07
39295;BME280;52361;52.100;5.248;2022-07-10T12:03:16;102550.0;;;23.11;56.59
39295;BME280;52361;52.100;5.248;2022-07-10T12:05:06;102550.0;;;23.33;56.66
39295;BME280;52361;52.100;5.248;2022-07-10T12:08:43;102551.0;;;23.67;56.95
39295;BME280;52361;52.100;5.248;2022-07-10T12:10:33;102552.0;;;23.57;52.75
39295;BME280;52361;52.100;5.248;2022-07-10T12:12:22;102552.0;;;23.56;53.08
39295;BME280;52361;52.100;5.248;2022-07-10T12:14:11;102548.0;;;23.55;53.53
39295;BME280;52361;52.100;5.248;2022-07-10T12:15:58;102546.0;;;23.66;53.76
39295;BME280;52361;52.100;5.248;2022-07-10T12:17:50;102551.0;;;23.7;52.56
39295;BME280;52361;52.100;5.248;2022-07-10T12:21:25;102557.0;;;23.8;52.33
39295;BME280;52361;52.100;5.248;2022-07-10T12:23:15;102556.0;;;23.76;52.54
39295;BME280;52361;52.100;5.248;2022-07-10T12:25:07;102553.0;;;23.73;53.28
39295;BME280;52361;52.100;5.248;2022-07-10T12:26:55;102552.0;;;23.49;51.89
39295;BME280;52361;52.100;5.248;2022-07-10T12:28:51;102551.0;;;23.61;53.46
39295;BME280;52361;52.100;5.248;2022-07-10T12:30:41;102545.0;;;23.69;53.7
39295;BME280;52361;52.100;5.248;2022-07-10T12:32:28;102552.0;;;23.68;53.54
39295;BME280;52361;52.100;5.248;2022-07-10T12:36:04;102549.0;;;23.91;53.17
39295;BME280;52361;52.100;5.248;2022-07-10T12:37:52;102551.0;;;24.21;52.73
39295;BME280;52361;52.100;5.248;2022-07-10T12:39:46;102546.0;;;24.03;51.89
39295;BME280;52361;52.100;5.248;2022-07-10T12:41:53;102548.0;;;24.08;52.8
39295;BME280;52361;52.100;5.248;2022-07-10T12:43:45;102542.0;;;24.12;51.61
39295;BME280;52361;52.100;5.248;2022-07-10T12:45:32;102544.0;;;24.06;52.21
39295;BME280;52361;52.100;5.248;2022-07-10T12:49:09;102547.0;;;24.23;53.23
39295;BME280;52361;52.100;5.248;2022-07-10T12:52:43;102549.0;;;24.26;51.47
39295;BME280;52361;52.100;5.248;2022-07-10T12:54:31;102551.0;;;24.25;53.46
39295;BME280;52361;52.100;5.248;2022-07-10T12:56:36;102542.0;;;24.13;51.06
39295;BME280;52361;52.100;5.248;2022-07-10T12:58:23;102544.0;;;24.24;53.38
39295;BME280;52361;52.100;5.248;2022-07-10T13:00:14;102543.0;;;24.38;52.24
39295;BME280;52361;52.100;5.248;2022-07-10T13:02:14;102542.0;;;24.44;52.04
39295;BME280;52361;52.100;5.248;2022-07-10T13:05:49;102542.0;;;24.27;51.41
39295;BME280;52361;52.100;5.248;2022-07-10T13:09:25;102538.00000000001;;;24.46;52.0
39295;BME280;52361;52.100;5.248;2022-07-10T13:13:00;102539.00000000001;;;24.44;52.85
39295;BME280;52361;52.100;5.248;2022-07-10T13:14:47;102542.0;;;24.43;52.52
39295;BME280;52361;52.100;5.248;2022-07-10T13:18:22;102545.0;;;24.41;53.11
39295;BME280;52361;52.100;5.248;2022-07-10T13:21:57;102541.00000000001;;;24.48;53.31
39295;BME280;52361;52.100;5.248;2022-07-10T13:23:44;102536.99999999999;;;24.8;54.81
39295;BME280;52361;52.100;5.248;2022-07-10T13:25:32;102538.00000000001;;;24.73;51.75
39295;BME280;52361;52.100;5.248;2022-07-10T13:27:20;102539.00000000001;;;24.84;51.3
39295;BME280;52361;52.100;5.248;2022-07-10T13:29:07;102533.0;;;24.6;51.11
39295;BME280;52361;52.100;5.248;2022-07-10T13:30:53;102533.0;;;24.78;53.02
39295;BME280;52361;52.100;5.248;2022-07-10T13:36:15;102529.0;;;24.62;52.94
39295;BME280;52361;52.100;5.248;2022-07-10T13:41:39;102529.0;;;24.77;52.82
39295;BME280;52361;52.100;5.248;2022-07-10T13:43:29;102534.99999999999;;;24.75;53.15
39295;BME280;52361;52.100;5.248;2022-07-10T13:47:03;102532.0;;;24.71;53.88
39295;BME280;52361;52.100;5.248;2022-07-10T13:48:51;102533.0;;;24.57;53.83
39295;BME280;52361;52.100;5.248;2022-07-10T13:50:38;102529.0;;;24.68;54.79
39295;BME280;52361;52.100;5.248;2022-07-10T13:54:13;102527.0;;;24.46;55.1
39295;BME280;52361;52.100;5.248;2022-07-10T13:56:02;102529.0;;;24.61;54.58
39295;BME280;52361;52.100;5.248;2022-07-10T13:59:38;102530.0;;;24.33;54.96
39295;BME280;52361;52.100;5.248;2022-07-10T14:01:25;102523.0;;;24.42;56.01
39295;BME280;52361;52.100;5.248;2022-07-10T14:03:12;102521.0;;;24.11;55.7
39295;BME280;52361;52.100;5.248;2022-07-10T14:04:59;102518.0;;;24.44;56.28
39295;BME280;52361;52.100;5.248;2022-07-10T14:06:46;102518.0;;;24.62;55.72
39295;BME280;52361;52.100;5.248;2022-07-10T14:08:33;102518.0;;;24.53;56.26
39295;BME280;52361;52.100;5.248;2022-07-10T14:12:08;102521.0;;;24.67;55.95
39295;BME280;52361;52.100;5.248;2022-07-10T14:13:55;102517.0;;;24.48;56.66
39295;BME280;52361;52.100;5.248;2022-07-10T14:15:44;102517.0;;;24.6;57.05
39295;BME280;52361;52.100;5.248;2022-07-10T14:17:31;102514.00000000001;;;24.64;55.47
39295;BME280;52361;52.100;5.248;2022-07-10T14:19:18;102519.0;;;24.59;57.05
39295;BME280;52361;52.100;5.248;2022-07-10T14:21:08;102517.0;;;24.59;56.77
39295;BME280;52361;52.100;5.248;2022-07-10T14:24:44;102522.0;;;24.9;56.84
39295;BME280;52361;52.100;5.248;2022-07-10T14:26:34;102524.0;;;24.78;56.66
39295;BME280;52361;52.100;5.248;2022-07-10T14:28:21;102522.0;;;24.72;55.52
39295;BME280;52361;52.100;5.248;2022-07-10T14:30:09;102516.00000000001;;;24.68;55.86
39295;BME280;52361;52.100;5.248;2022-07-10T14:33:44;102517.0;;;24.78;56.23
39295;BME280;52361;52.100;5.248;2022-07-10T14:37:19;102511.99999999999;;;24.94;55.64
39295;BME280;52361;52.100;5.248;2022-07-10T14:39:06;102513.00000000001;;;24.83;56.56
39295;BME280;52361;52.100;5.248;2022-07-10T14:40:54;102508.0;;;24.82;55.77
39295;BME280;52361;52.100;5.248;2022-07-10T14:44:28;102506.0;;;25.18;55.44
39295;BME280;52361;52.100;5.248;2022-07-10T14:46:16;102511.99999999999;;;25.13;55.24
39295;BME280;52361;52.100;5.248;2022-07-10T14:49:50;102502.0;;;25.23;54.4
39295;BME280;52361;52.100;5.248;2022-07-10T14:51:37;102496.0;;;25.17;55.77
39295;BME280;52361;52.100;5.248;2022-07-10T14:55:13;102497.0;;;25.13;55.15
39295;BME280;52361;52.100;5.248;2022-07-10T14:57:00;102496.0;;;25.17;55.52
39295;BME280;52361;52.100;5.248;2022-07-10T14:58:48;102498.0;;;25.14;54.85
39295;BME280;52361;52.100;5.248;2022-07-10T15:02:22;102492.0;;;24.89;54.97
39295;BME280;52361;52.100;5.248;2022-07-10T15:04:09;102492.0;;;24.82;55.35
39295;BME280;52361;52.100;5.248;2022-07-10T15:05:57;102492.0;;;24.77;55.52
39295;BME280;52361;52.100;5.248;2022-07-10T15:09:31;102484.99999999999;;;24.63;56.87
39295;BME280;52361;52.100;5.248;2022-07-10T15:11:18;102486.99999999999;;;24.52;55.77
39295;BME280;52361;52.100;5.248;2022-07-10T15:14:54;102486.99999999999;;;24.54;57.96
39295;BME280;52361;52.100;5.248;2022-07-10T15:16:41;102482.0;;;24.74;56.59
39295;BME280;52361;52.100;5.248;2022-07-10T15:20:16;102479.0;;;24.69;55.89
39295;BME280;52361;52.100;5.248;2022-07-10T15:22:04;102478.0;;;24.6;55.39
39295;BME280;52361;52.100;5.248;2022-07-10T15:23:51;102476.0;;;24.33;56.7
39295;BME280;52361;52.100;5.248;2022-07-10T15:27:27;102473.0;;;24.43;57.77
39295;BME280;52361;52.100;5.248;2022-07-10T15:29:15;102474.0;;;24.36;57.31
39295;BME280;52361;52.100;5.248;2022-07-10T15:32:53;102477.0;;;24.28;56.93